Time;durP1;ratioP1;P1;durP2;ratioP2;P2;SDS_P1;SDS_P2;PMS_P1;PMS_P2;Temp;Humidity;BMP_temperature;BMP_pressure;BME280_temperature;BME280_humidity;BME280_pressure;Samples;Min_cycle;Max_cycle;Signal;HPM_P1;HPM_P2
2021/09/12 00:02:40;;;;;;;10.60;3.85;;;19.40;88.60;;;;;;10084422;28;20536;-60
2021/09/12 00:07:30;;;;;;;6.93;4.38;;;19.30;88.50;;;;;;10086223;28;20028;-58
2021/09/12 00:12:21;;;;;;;5.70;4.07;;;19.20;88.80;;;;;;10070499;28;20275;-59
2021/09/12 00:17:12;;;;;;;4.65;3.83;;;19.20;89.10;;;;;;10066639;28;20025;-58
2021/09/12 00:22:03;;;;;;;5.10;3.38;;;19.00;89.60;;;;;;10082233;28;20039;-60
2021/09/12 00:26:53;;;;;;;6.18;3.75;;;19.20;89.50;;;;;;10089721;28;20025;-60
2021/09/12 00:31:44;;;;;;;4.88;3.05;;;19.00;89.60;;;;;;10083265;28;20033;-58
2021/09/12 00:36:35;;;;;;;4.50;3.05;;;18.70;90.10;;;;;;10083484;28;20029;-60
2021/09/12 00:41:25;;;;;;;4.72;3.22;;;18.80;90.10;;;;;;10070662;28;20063;-59
2021/09/12 00:46:16;;;;;;;6.47;2.55;;;19.00;89.70;;;;;;10084038;28;20040;-59
2021/09/12 00:51:07;;;;;;;8.07;4.15;;;19.00;89.40;;;;;;10082008;28;20041;-59
2021/09/12 00:56:00;;;;;;;5.22;3.47;;;19.00;89.40;;;;;;10078792;28;20029;-59
2021/09/12 01:00:51;;;;;;;7.28;3.83;;;18.90;89.40;;;;;;10080641;28;20041;-58
2021/09/12 01:05:42;;;;;;;5.63;3.92;;;18.80;89.70;;;;;;10081958;28;20806;-59
2021/09/12 01:10:34;;;;;;;5.22;3.38;;;18.70;90.00;;;;;;10086359;28;20043;-59
2021/09/12 01:15:24;;;;;;;5.15;3.72;;;18.60;90.00;;;;;;10069879;28;20635;-58
2021/09/12 01:20:15;;;;;;;5.82;3.53;;;18.60;90.20;;;;;;10081402;28;20300;-60
2021/09/12 01:25:06;;;;;;;6.45;4.15;;;18.60;90.10;;;;;;10081660;28;20025;-58
2021/09/12 01:30:00;;;;;;;7.10;3.38;;;18.50;90.30;;;;;;10078918;28;20115;-59
2021/09/12 01:34:50;;;;;;;5.32;3.42;;;18.40;90.40;;;;;;10079678;28;20155;-58
2021/09/12 01:39:41;;;;;;;5.15;3.53;;;18.30;90.60;;;;;;10075763;28;20033;-60
2021/09/12 01:44:31;;;;;;;5.40;3.50;;;18.30;90.70;;;;;;10075267;28;20041;-59
2021/09/12 01:49:23;;;;;;;6.85;3.45;;;18.30;90.70;;;;;;10086602;28;20403;-59
2021/09/12 01:54:14;;;;;;;5.10;3.63;;;18.10;90.70;;;;;;10082160;28;20021;-59
2021/09/12 01:59:05;;;;;;;5.70;3.78;;;18.20;90.80;;;;;;10079514;28;20527;-59
2021/09/12 02:03:55;;;;;;;6.70;5.00;;;18.20;90.80;;;;;;10067298;28;20684;-59
2021/09/12 02:08:46;;;;;;;7.75;3.92;;;18.20;90.80;;;;;;10077069;28;20087;-60
2021/09/12 02:13:37;;;;;;;9.70;4.32;;;18.20;91.00;;;;;;10077394;28;20045;-59
2021/09/12 02:18:28;;;;;;;5.88;3.80;;;18.20;90.80;;;;;;10079523;28;20064;-60
2021/09/12 02:23:18;;;;;;;5.63;3.28;;;18.10;91.00;;;;;;10081965;28;20080;-58
2021/09/12 02:28:09;;;;;;;5.07;3.35;;;18.20;91.00;;;;;;10077009;28;20258;-59
2021/09/12 02:33:00;;;;;;;4.03;3.25;;;18.20;91.00;;;;;;10079001;28;20457;-59
2021/09/12 02:37:50;;;;;;;3.92;2.88;;;18.10;91.10;;;;;;10071547;28;20028;-60
2021/09/12 02:42:41;;;;;;;5.03;3.30;;;18.10;91.10;;;;;;10077081;28;20052;-60
2021/09/12 02:47:32;;;;;;;5.15;3.55;;;18.10;91.10;;;;;;10063286;28;20033;-58
2021/09/12 02:52:22;;;;;;;5.63;3.55;;;18.00;91.10;;;;;;10077064;28;20043;-59
2021/09/12 02:57:13;;;;;;;8.30;4.13;;;18.00;91.20;;;;;;10065708;28;20082;-59
2021/09/12 03:02:04;;;;;;;4.32;2.90;;;17.90;91.20;;;;;;10078301;28;20463;-59
2021/09/12 03:06:54;;;;;;;3.85;2.72;;;18.00;91.20;;;;;;10059816;28;20060;-59
2021/09/12 03:11:45;;;;;;;4.50;3.10;;;17.90;91.20;;;;;;10082873;28;20134;-58
2021/09/12 03:16:36;;;;;;;3.92;3.08;;;17.80;91.30;;;;;;10077406;28;20417;-58
2021/09/12 03:21:26;;;;;;;5.97;2.83;;;17.90;91.30;;;;;;10057646;28;20075;-59
2021/09/12 03:26:17;;;;;;;6.65;2.70;;;17.80;91.20;;;;;;10062287;28;20145;-59
2021/09/12 03:31:08;;;;;;;3.88;2.70;;;17.90;91.30;;;;;;10082398;28;20433;-58
2021/09/12 03:35:58;;;;;;;4.78;2.95;;;17.90;91.20;;;;;;10085286;28;20021;-59
2021/09/12 03:40:49;;;;;;;3.75;2.97;;;17.90;91.20;;;;;;10082280;28;20033;-59
2021/09/12 03:45:40;;;;;;;3.10;2.38;;;17.90;91.10;;;;;;10091735;28;20052;-59
2021/09/12 03:50:31;;;;;;;4.30;2.95;;;17.90;91.10;;;;;;10082766;28;20131;-59
2021/09/12 03:55:22;;;;;;;7.63;2.70;;;17.80;91.00;;;;;;10084524;28;20069;-58
2021/09/12 04:00:13;;;;;;;4.63;2.58;;;17.70;91.10;;;;;;10060061;28;20064;-59
2021/09/12 04:05:04;;;;;;;5.50;2.30;;;17.70;91.10;;;;;;10085373;28;20475;-59
2021/09/12 04:09:55;;;;;;;3.67;2.47;;;17.70;91.10;;;;;;10065236;28;20044;-58
2021/09/12 04:14:45;;;;;;;3.72;2.22;;;17.60;91.10;;;;;;10079204;28;20147;-58
2021/09/12 04:19:36;;;;;;;3.92;2.42;;;17.50;91.10;;;;;;10082105;28;20233;-59
2021/09/12 04:24:27;;;;;;;3.67;2.63;;;17.40;91.10;;;;;;10083022;28;20158;-59
2021/09/12 04:29:18;;;;;;;3.28;2.92;;;17.40;91.10;;;;;;10083493;28;20495;-58
2021/09/12 04:34:09;;;;;;;3.85;2.90;;;17.40;91.10;;;;;;10083016;28;20021;-58
2021/09/12 04:38:59;;;;;;;5.03;2.75;;;17.30;91.20;;;;;;10086477;28;20025;-57
2021/09/12 04:43:50;;;;;;;6.05;3.30;;;17.30;91.10;;;;;;10080308;28;20380;-59
2021/09/12 04:48:41;;;;;;;5.47;2.80;;;17.20;91.20;;;;;;10082661;28;20128;-59
2021/09/12 04:53:32;;;;;;;3.95;2.58;;;17.20;91.30;;;;;;10084012;28;20053;-58
2021/09/12 04:58:22;;;;;;;3.63;2.78;;;17.30;91.30;;;;;;10089741;28;20047;-58
2021/09/12 05:03:13;;;;;;;4.80;2.83;;;17.30;91.20;;;;;;10083653;28;20703;-59
2021/09/12 05:08:04;;;;;;;3.10;2.63;;;17.20;91.40;;;;;;10079497;28;20036;-57
2021/09/12 05:12:55;;;;;;;3.33;2.55;;;17.20;91.40;;;;;;10073482;28;20489;-61
2021/09/12 05:17:46;;;;;;;3.13;2.17;;;17.30;91.30;;;;;;10081472;28;20117;-59
2021/09/12 05:22:38;;;;;;;3.58;2.65;;;17.20;91.40;;;;;;10061645;28;20051;-61
2021/09/12 05:27:28;;;;;;;3.60;2.85;;;17.20;91.40;;;;;;10077258;28;20270;-59
2021/09/12 05:32:19;;;;;;;4.60;2.95;;;17.10;91.40;;;;;;10083014;28;20126;-57
2021/09/12 05:37:10;;;;;;;5.03;3.03;;;17.20;91.40;;;;;;10085939;28;20028;-57
2021/09/12 05:42:01;;;;;;;4.15;3.20;;;17.20;91.40;;;;;;10080809;28;20080;-58
2021/09/12 05:46:52;;;;;;;4.80;2.88;;;17.20;91.40;;;;;;10091611;28;20143;-58
2021/09/12 05:51:43;;;;;;;4.18;3.03;;;17.20;91.40;;;;;;10077629;28;20027;-59
2021/09/12 05:56:33;;;;;;;2.90;2.50;;;17.10;91.60;;;;;;10076980;28;20028;-59
2021/09/12 06:01:24;;;;;;;4.75;2.90;;;17.20;91.60;;;;;;10077616;28;20041;-57
2021/09/12 06:06:15;;;;;;;5.38;2.97;;;17.10;91.50;;;;;;10081862;28;20407;-59
2021/09/12 06:11:09;;;;;;;3.10;2.50;;;17.20;91.50;;;;;;10081314;28;20033;-58
2021/09/12 06:16:00;;;;;;;4.30;2.93;;;17.30;91.40;;;;;;10063224;28;20065;-58
2021/09/12 06:20:51;;;;;;;3.42;2.63;;;17.30;91.50;;;;;;10082583;28;20067;-59
2021/09/12 06:25:41;;;;;;;3.60;2.83;;;17.30;91.50;;;;;;10077133;28;20510;-60
2021/09/12 06:30:32;;;;;;;4.85;2.50;;;17.40;91.50;;;;;;10062855;28;20032;-59
2021/09/12 06:35:23;;;;;;;4.63;3.38;;;17.40;91.40;;;;;;10076598;28;20511;-60
2021/09/12 06:40:14;;;;;;;6.28;2.95;;;17.50;91.50;;;;;;10074604;28;20042;-58
2021/09/12 06:45:05;;;;;;;5.70;3.17;;;17.40;91.40;;;;;;10077494;28;20040;-59
2021/09/12 06:49:57;;;;;;;5.97;3.30;;;17.60;91.50;;;;;;10074479;28;20119;-59
2021/09/12 06:54:51;;;;;;;4.13;3.10;;;17.60;91.40;;;;;;10078800;28;20078;-59
2021/09/12 06:59:42;;;;;;;5.35;3.25;;;17.80;91.40;;;;;;10071434;28;20444;-59
2021/09/12 07:04:33;;;;;;;3.58;2.67;;;17.90;91.20;;;;;;10073826;28;20074;-59
2021/09/12 07:09:24;;;;;;;5.25;2.50;;;18.10;91.20;;;;;;10077417;28;20411;-60
2021/09/12 07:14:15;;;;;;;4.90;3.20;;;18.30;91.00;;;;;;10075023;28;20358;-59
2021/09/12 07:19:07;;;;;;;5.00;3.30;;;18.40;90.90;;;;;;10077717;28;20039;-58
2021/09/12 07:23:58;;;;;;;4.78;2.88;;;18.40;90.90;;;;;;10080522;28;20044;-58
2021/09/12 07:28:48;;;;;;;5.40;3.33;;;18.50;90.80;;;;;;10076939;28;20017;-59
2021/09/12 07:33:39;;;;;;;4.95;3.83;;;18.50;90.80;;;;;;10076798;28;20041;-60
2021/09/12 07:38:30;;;;;;;6.10;3.55;;;18.50;90.90;;;;;;10075987;28;20411;-59
2021/09/12 07:43:21;;;;;;;5.95;4.20;;;18.70;90.70;;;;;;10083152;28;20049;-58
2021/09/12 07:48:11;;;;;;;7.97;4.15;;;18.80;90.60;;;;;;10059408;28;20021;-58
2021/09/12 07:53:02;;;;;;;5.93;3.85;;;18.90;90.70;;;;;;10058932;28;20090;-59
2021/09/12 07:57:53;;;;;;;4.93;3.80;;;19.00;90.40;;;;;;10075993;28;20055;-57
2021/09/12 08:02:44;;;;;;;7.80;4.35;;;19.00;90.40;;;;;;10078919;28;20453;-58
2021/09/12 08:07:35;;;;;;;7.60;3.60;;;19.10;90.40;;;;;;10062259;28;20036;-59
2021/09/12 08:12:26;;;;;;;3.95;3.25;;;19.30;90.10;;;;;;10075849;28;20149;-60
2021/09/12 08:17:16;;;;;;;4.68;3.58;;;19.30;90.10;;;;;;10085277;28;20484;-59
2021/09/12 08:22:07;;;;;;;5.75;3.38;;;19.30;90.10;;;;;;10080354;28;20041;-57
2021/09/12 08:26:58;;;;;;;5.82;3.50;;;19.50;89.90;;;;;;10081598;28;20030;-58
2021/09/12 08:31:49;;;;;;;4.50;2.95;;;19.60;89.80;;;;;;10080887;28;20527;-59
2021/09/12 08:36:39;;;;;;;4.78;3.45;;;19.60;89.30;;;;;;10081614;28;20063;-58
2021/09/12 08:41:32;;;;;;;5.70;3.92;;;19.80;89.20;;;;;;10062379;28;20519;-59
2021/09/12 08:46:23;;;;;;;5.43;3.38;;;19.80;89.20;;;;;;10078454;28;20032;-60
2021/09/12 08:51:13;;;;;;;5.03;3.75;;;19.90;88.70;;;;;;10077860;28;20371;-61
2021/09/12 08:56:04;;;;;;;3.90;2.58;;;20.00;88.40;;;;;;10081639;28;20020;-60
2021/09/12 09:00:59;;;;;;;9.95;4.68;;;20.10;88.10;;;;;;10065590;28;20033;-59
2021/09/12 09:05:51;;;;;;;5.15;3.80;;;20.30;87.50;;;;;;10078331;28;20039;-58
2021/09/12 09:10:50;;;;;;;4.88;3.42;;;20.40;87.30;;;;;;10088699;28;20112;-58
2021/09/12 09:15:41;;;;;;;5.97;3.05;;;20.40;87.20;;;;;;10077429;28;20151;-59
2021/09/12 09:20:35;;;;;;;5.75;3.08;;;20.60;86.60;;;;;;10080323;28;20190;-60
2021/09/12 09:25:31;;;;;;;13.32;6.20;;;20.70;85.90;;;;;;10088825;28;20057;-59
2021/09/12 09:30:23;;;;;;;5.88;3.30;;;20.90;85.60;;;;;;10079529;28;20029;-58
2021/09/12 09:35:24;;;;;;;4.68;3.28;;;20.90;85.10;;;;;;10059054;28;20442;-58
2021/09/12 09:40:14;;;;;;;3.90;2.97;;;20.90;84.80;;;;;;10076867;28;20041;-59
2021/09/12 09:45:13;;;;;;;5.18;3.20;;;21.20;84.30;;;;;;10083284;28;20041;-59
2021/09/12 09:50:15;;;;;;;4.55;3.85;;;21.20;83.50;;;;;;10082298;28;20034;-59
2021/09/12 09:55:09;;;;;;;4.03;2.47;;;21.30;82.90;;;;;;10065704;28;20032;-59
2021/09/12 10:00:00;;;;;;;5.97;3.80;;;21.30;82.80;;;;;;10078719;28;20148;-60
2021/09/12 10:04:52;;;;;;;3.90;2.85;;;21.30;82.20;;;;;;10076035;28;20017;-58
2021/09/12 10:09:43;;;;;;;3.38;2.30;;;21.50;81.50;;;;;;10060952;28;20036;-59
2021/09/12 10:14:40;;;;;;;5.35;3.63;;;21.60;81.00;;;;;;10069228;28;20032;-59
2021/09/12 10:19:35;;;;;;;3.00;2.20;;;21.90;80.20;;;;;;10086327;28;20028;-58
2021/09/12 10:24:27;;;;;;;4.78;2.78;;;21.80;79.90;;;;;;10079646;28;20087;-60
2021/09/12 10:29:51;;;;;;;4.60;2.33;;;21.90;79.80;;;;;;10060655;28;20143;-59
2021/09/12 10:35:20;;;;;;;4.70;2.47;;;22.00;78.60;;;;;;10069396;28;20068;-60
2021/09/12 10:40:11;;;;;;;2.20;1.75;;;22.00;77.80;;;;;;10075467;28;20037;-58
2021/09/12 10:45:31;;;;;;;3.08;1.90;;;22.10;78.30;;;;;;10061483;28;20144;-58
2021/09/12 10:50:49;;;;;;;3.13;1.90;;;22.30;76.70;;;;;;10055790;28;20044;-59
2021/09/12 10:56:00;;;;;;;6.32;2.85;;;22.50;76.10;;;;;;10073296;28;20033;-58
2021/09/12 11:00:50;;;;;;;6.40;3.70;;;22.70;75.90;;;;;;10075984;28;20045;-58
2021/09/12 11:05:41;;;;;;;6.88;3.97;;;22.70;75.90;;;;;;10073338;28;20036;-58
2021/09/12 11:10:40;;;;;;;2.85;1.73;;;22.50;75.70;;;;;;10064519;28;20061;-59
2021/09/12 11:15:32;;;;;;;2.17;1.50;;;22.40;75.80;;;;;;10075466;28;20029;-59
2021/09/12 11:20:46;;;;;;;3.72;1.50;;;22.60;74.50;;;;;;10076046;28;20056;-58
2021/09/12 11:25:37;;;;;;;2.83;1.52;;;22.90;72.60;;;;;;10065112;28;20044;-58
2021/09/12 11:30:28;;;;;;;3.10;1.50;;;22.90;73.30;;;;;;10078420;28;20025;-58
2021/09/12 11:35:19;;;;;;;1.80;1.35;;;22.80;72.80;;;;;;10072437;28;20036;-59
2021/09/12 11:40:10;;;;;;;1.77;1.27;;;22.70;72.40;;;;;;10052152;28;20314;-59
2021/09/12 11:45:01;;;;;;;1.85;1.33;;;22.80;72.30;;;;;;10078516;28;20044;-58
2021/09/12 11:50:01;;;;;;;3.40;1.45;;;22.80;72.00;;;;;;10077092;28;20507;-58
2021/09/12 11:54:52;;;;;;;1.35;0.95;;;22.90;71.40;;;;;;10069046;28;20446;-58
2021/09/12 11:59:50;;;;;;;1.30;1.20;;;23.00;71.10;;;;;;10088197;28;20303;-58
2021/09/12 12:04:44;;;;;;;2.13;1.48;;;23.10;70.10;;;;;;10078459;28;20036;-58
2021/09/12 12:09:40;;;;;;;1.97;1.57;;;23.20;70.40;;;;;;10064898;28;20447;-57
2021/09/12 12:14:31;;;;;;;2.45;1.80;;;23.40;69.80;;;;;;10060963;28;20093;-57
2021/09/12 12:19:31;;;;;;;2.67;1.85;;;23.50;69.50;;;;;;10085488;28;20591;-59
2021/09/12 12:24:23;;;;;;;1.73;1.27;;;23.80;68.80;;;;;;10077914;28;20296;-58
2021/09/12 12:29:25;;;;;;;1.52;1.40;;;24.00;68.30;;;;;;10080187;28;20059;-59
2021/09/12 12:34:40;;;;;;;1.77;1.40;;;24.30;67.70;;;;;;10086086;28;20040;-58
2021/09/12 12:39:32;;;;;;;1.90;1.35;;;24.60;67.00;;;;;;10070429;28;20053;-60
2021/09/12 12:44:23;;;;;;;2.05;1.85;;;25.10;67.70;;;;;;10080537;28;20119;-59
2021/09/12 12:49:55;;;;;;;2.30;1.13;;;25.60;67.50;;;;;;10082843;28;20056;-59
2021/09/12 12:54:46;;;;;;;2.60;1.48;;;26.00;66.20;;;;;;10063349;28;20091;-58
2021/09/12 12:59:44;;;;;;;1.40;1.00;;;26.10;66.90;;;;;;10081848;28;20268;-63
2021/09/12 13:04:35;;;;;;;1.10;1.00;;;26.30;67.30;;;;;;10080092;28;20033;-59
2021/09/12 13:09:26;;;;;;;1.63;1.17;;;26.70;67.00;;;;;;10080784;28;20442;-59
2021/09/12 13:14:17;;;;;;;1.45;1.27;;;27.00;66.40;;;;;;10080703;28;20060;-58
2021/09/12 13:19:07;;;;;;;1.30;1.10;;;27.60;64.80;;;;;;10076692;28;20052;-58
2021/09/12 13:23:58;;;;;;;1.17;0.98;;;28.50;63.30;;;;;;10080489;28;20057;-58
2021/09/12 13:28:49;;;;;;;3.00;2.00;;;30.90;59.60;;;;;;10080288;28;20060;-58
2021/09/12 13:33:40;;;;;;;1.47;1.23;;;33.10;55.00;;;;;;10080858;28;20021;-59
2021/09/12 13:38:33;;;;;;;1.15;1.02;;;34.60;52.00;;;;;;10069973;28;20074;-59
2021/09/12 13:43:24;;;;;;;2.60;1.00;;;35.40;48.90;;;;;;10076633;28;20117;-60
2021/09/12 13:48:15;;;;;;;2.10;1.40;;;36.30;46.60;;;;;;10077601;28;20021;-58
2021/09/12 13:53:05;;;;;;;1.40;1.30;;;37.00;45.30;;;;;;10077158;28;20534;-58
2021/09/12 13:57:56;;;;;;;1.67;1.10;;;36.30;44.70;;;;;;10078219;28;20187;-59
2021/09/12 14:02:49;;;;;;;1.33;1.23;;;36.00;44.10;;;;;;10069045;28;20073;-57
2021/09/12 14:07:40;;;;;;;1.55;1.13;;;35.10;44.20;;;;;;10078886;28;20116;-58
2021/09/12 14:12:31;;;;;;;1.75;1.33;;;34.70;44.00;;;;;;10063063;28;20027;-58
2021/09/12 14:17:22;;;;;;;1.70;1.50;;;34.00;44.10;;;;;;10079094;28;20537;-59
2021/09/12 14:22:12;;;;;;;1.20;1.00;;;34.20;44.00;;;;;;10052839;28;20134;-59
2021/09/12 14:27:03;;;;;;;1.15;0.95;;;33.70;44.10;;;;;;10075721;28;20033;-59
2021/09/12 14:31:54;;;;;;;1.58;1.48;;;33.60;43.90;;;;;;10075561;28;20129;-58
2021/09/12 14:36:44;;;;;;;1.63;1.50;;;33.60;43.90;;;;;;10076204;28;20396;-59
2021/09/12 14:41:35;;;;;;;1.87;1.30;;;33.20;43.70;;;;;;10060882;28;20044;-57
2021/09/12 14:46:26;;;;;;;1.20;1.05;;;34.10;42.40;;;;;;10073363;28;20029;-59
2021/09/12 14:51:17;;;;;;;3.22;1.65;;;34.50;41.80;;;;;;10076227;28;20398;-58
2021/09/12 14:56:08;;;;;;;3.27;2.77;;;33.80;42.00;;;;;;10075335;28;20032;-57
2021/09/12 15:00:59;;;;;;;1.97;1.80;;;35.20;40.70;;;;;;10071034;28;20045;-59
2021/09/12 15:05:49;;;;;;;3.17;2.58;;;36.30;39.30;;;;;;10075752;28;20059;-59
2021/09/12 15:10:40;;;;;;;5.93;4.35;;;36.70;39.10;;;;;;10071278;28;20204;-60
2021/09/12 15:15:31;;;;;;;3.13;1.90;;;37.30;38.20;;;;;;10074882;28;20233;-58
2021/09/12 15:20:22;;;;;;;1.70;1.33;;;36.80;38.00;;;;;;10077147;28;20045;-58
2021/09/12 15:25:13;;;;;;;1.23;0.90;;;36.50;38.20;;;;;;10075358;28;20029;-58
2021/09/12 15:30:05;;;;;;;2.63;1.83;;;36.70;37.30;;;;;;10086061;28;20063;-59
2021/09/12 15:34:57;;;;;;;2.95;1.42;;;36.90;36.50;;;;;;10067495;28;20303;-57
2021/09/12 15:39:48;;;;;;;2.38;1.27;;;37.00;36.40;;;;;;10084867;28;20045;-58
2021/09/12 15:44:38;;;;;;;3.25;1.30;;;36.40;36.30;;;;;;10083271;28;20045;-57
2021/09/12 15:49:29;;;;;;;1.77;1.23;;;35.30;37.50;;;;;;10081889;28;20013;-59
2021/09/12 15:54:20;;;;;;;1.65;1.27;;;36.10;36.20;;;;;;10081726;28;20128;-60
2021/09/12 15:59:11;;;;;;;1.73;1.50;;;36.20;36.10;;;;;;10084319;28;20111;-59
2021/09/12 16:04:02;;;;;;;1.60;1.35;;;34.90;37.00;;;;;;10081869;28;20102;-58
2021/09/12 16:08:52;;;;;;;1.52;1.00;;;32.70;39.70;;;;;;10078215;28;20403;-59
2021/09/12 16:13:43;;;;;;;1.48;1.38;;;31.90;39.90;;;;;;10082177;28;20043;-60
2021/09/12 16:18:34;;;;;;;3.95;1.08;;;31.90;39.40;;;;;;10083883;28;20036;-60
2021/09/12 16:23:29;;;;;;;3.30;1.40;;;30.80;40.60;;;;;;10080533;28;20056;-58
2021/09/12 16:28:20;;;;;;;2.92;1.38;;;29.70;42.00;;;;;;10057772;28;20025;-58
2021/09/12 16:33:10;;;;;;;1.52;1.23;;;30.10;41.40;;;;;;10082485;28;20436;-60
2021/09/12 16:38:01;;;;;;;1.83;1.23;;;29.50;41.90;;;;;;10083221;28;20029;-59
2021/09/12 16:42:52;;;;;;;1.80;1.40;;;30.70;40.90;;;;;;10087940;28;20052;-59
2021/09/12 16:47:42;;;;;;;1.77;1.10;;;32.70;38.80;;;;;;10082391;28;20276;-58
2021/09/12 16:52:33;;;;;;;1.20;1.10;;;34.00;37.90;;;;;;10091728;28;20060;-58
2021/09/12 16:57:24;;;;;;;3.20;2.00;;;34.30;37.60;;;;;;10078095;28;20026;-59
2021/09/12 17:02:14;;;;;;;2.50;1.60;;;34.30;38.00;;;;;;10079097;28;20080;-58
2021/09/12 17:07:05;;;;;;;1.90;1.60;;;32.40;39.90;;;;;;10083778;28;20495;-58
2021/09/12 17:11:56;;;;;;;2.47;1.70;;;29.90;43.40;;;;;;10089768;28;20035;-58
2021/09/12 17:16:47;;;;;;;2.42;1.55;;;28.30;44.40;;;;;;10080434;28;20077;-59
2021/09/12 17:21:38;;;;;;;3.13;1.90;;;27.40;45.30;;;;;;10081769;28;20180;-61
2021/09/12 17:26:29;;;;;;;4.50;2.38;;;26.90;46.00;;;;;;10074006;28;20048;-60
2021/09/12 17:31:19;;;;;;;5.10;2.03;;;26.50;46.40;;;;;;10079765;28;20450;-59
2021/09/12 17:36:10;;;;;;;2.65;1.80;;;26.10;46.80;;;;;;10058432;28;20036;-57
2021/09/12 17:41:04;;;;;;;2.30;1.58;;;25.90;47.50;;;;;;10078560;28;20047;-58
2021/09/12 17:45:55;;;;;;;1.63;1.30;;;25.80;47.50;;;;;;10080040;28;20155;-58
2021/09/12 17:50:46;;;;;;;1.63;1.30;;;25.60;47.90;;;;;;10061416;28;20041;-58
2021/09/12 17:55:36;;;;;;;3.05;1.70;;;25.50;48.30;;;;;;10080389;28;20052;-58
2021/09/12 18:00:27;;;;;;;2.22;1.60;;;25.30;48.70;;;;;;10070958;28;20510;-58
2021/09/12 18:05:18;;;;;;;3.70;1.55;;;25.20;49.30;;;;;;10078699;28;20036;-58
2021/09/12 18:10:09;;;;;;;4.68;2.15;;;25.10;49.70;;;;;;10069347;28;20032;-58
2021/09/12 18:15:00;;;;;;;5.72;2.35;;;25.00;50.10;;;;;;10073422;28;20370;-57
2021/09/12 18:19:50;;;;;;;3.28;2.25;;;24.90;50.60;;;;;;10076809;28;20036;-58
2021/09/12 18:24:41;;;;;;;3.97;2.72;;;24.80;51.20;;;;;;10071297;28;20032;-58
2021/09/12 18:29:32;;;;;;;5.05;2.33;;;24.70;51.70;;;;;;10055922;28;20034;-58
2021/09/12 18:34:23;;;;;;;4.18;2.50;;;24.50;53.00;;;;;;10072347;28;20029;-58
2021/09/12 18:39:14;;;;;;;4.15;2.72;;;24.50;52.80;;;;;;10070349;28;20029;-58
2021/09/12 18:44:04;;;;;;;5.03;3.33;;;24.40;53.40;;;;;;10071626;28;20404;-59
2021/09/12 18:48:55;;;;;;;3.55;2.75;;;24.20;54.00;;;;;;10072428;28;20074;-58
2021/09/12 18:53:47;;;;;;;4.65;2.70;;;24.00;54.80;;;;;;10081247;28;20518;-59
2021/09/12 18:58:38;;;;;;;4.88;2.83;;;24.00;55.10;;;;;;10057259;28;20048;-60
2021/09/12 19:03:29;;;;;;;3.10;2.28;;;24.00;55.60;;;;;;10073520;28;20037;-63
2021/09/12 19:08:19;;;;;;;7.00;4.18;;;23.90;56.10;;;;;;10061235;28;20082;-56
2021/09/12 19:13:11;;;;;;;7.38;3.90;;;23.80;56.60;;;;;;10058315;28;20040;-59
2021/09/12 19:18:02;;;;;;;4.78;2.40;;;23.80;57.00;;;;;;10070438;28;20032;-58
2021/09/12 19:22:53;;;;;;;3.22;2.13;;;23.80;57.50;;;;;;10074360;28;20037;-56
2021/09/12 19:27:43;;;;;;;3.97;2.15;;;23.80;57.90;;;;;;10061556;28;20021;-57
2021/09/12 19:32:35;;;;;;;4.15;2.30;;;23.70;58.30;;;;;;10069381;28;20032;-54
2021/09/12 19:37:26;;;;;;;4.90;2.22;;;23.50;58.80;;;;;;10078291;28;20098;-58
2021/09/12 19:42:17;;;;;;;3.22;2.13;;;23.40;59.30;;;;;;10065614;28;20521;-57
2021/09/12 19:47:09;;;;;;;3.03;2.08;;;23.40;59.90;;;;;;10071028;28;20052;-57
2021/09/12 19:52:00;;;;;;;9.82;2.50;;;23.40;60.40;;;;;;10072751;28;20039;-54
2021/09/12 19:56:51;;;;;;;3.92;2.90;;;23.30;60.90;;;;;;10070320;28;20029;-57
2021/09/12 20:01:41;;;;;;;6.65;3.33;;;23.30;61.20;;;;;;10057039;28;20033;-58
2021/09/12 20:06:32;;;;;;;2.72;2.10;;;23.30;61.50;;;;;;10053577;28;20017;-61
2021/09/12 20:11:23;;;;;;;4.10;2.00;;;23.30;62.00;;;;;;10054090;28;20037;-61
2021/09/12 20:16:14;;;;;;;2.75;2.22;;;23.30;62.10;;;;;;10079186;28;20037;-59
2021/09/12 20:21:04;;;;;;;4.70;1.88;;;23.20;62.40;;;;;;10081726;28;20129;-61
2021/09/12 20:25:55;;;;;;;4.07;3.65;;;23.20;62.80;;;;;;10076569;28;20518;-60
2021/09/12 20:30:47;;;;;;;4.70;2.47;;;23.10;63.10;;;;;;10083729;28;20043;-61
2021/09/12 20:35:37;;;;;;;2.85;2.40;;;23.00;63.40;;;;;;10078657;28;20512;-63
2021/09/12 20:40:28;;;;;;;2.05;1.67;;;23.00;63.60;;;;;;10078392;28;20052;-60
2021/09/12 20:45:19;;;;;;;2.72;1.67;;;22.90;63.80;;;;;;10075173;28;20056;-58
2021/09/12 20:50:10;;;;;;;3.20;1.95;;;22.80;64.30;;;;;;10079752;28;20040;-61
2021/09/12 20:55:03;;;;;;;4.00;2.38;;;22.70;64.70;;;;;;10059308;28;20126;-62
2021/09/12 20:59:53;;;;;;;2.42;1.88;;;22.70;65.00;;;;;;10072728;28;20108;-62
2021/09/12 21:04:44;;;;;;;2.95;2.33;;;22.70;65.20;;;;;;10079349;28;20534;-59
2021/09/12 21:09:35;;;;;;;3.40;2.42;;;22.40;65.60;;;;;;10079302;28;20029;-57
2021/09/12 21:14:26;;;;;;;4.15;2.35;;;22.40;66.00;;;;;;10075566;28;20025;-59
2021/09/12 21:19:16;;;;;;;2.05;1.73;;;22.30;66.40;;;;;;10061744;28;20051;-59
2021/09/12 21:24:07;;;;;;;5.22;2.97;;;22.20;66.40;;;;;;10062385;28;20499;-60
2021/09/12 21:28:58;;;;;;;3.00;1.83;;;22.20;66.90;;;;;;10097958;28;20060;-59
2021/09/12 21:33:49;;;;;;;3.10;2.10;;;22.20;67.10;;;;;;10067542;28;20098;-59
2021/09/12 21:38:39;;;;;;;2.50;2.20;;;22.20;67.30;;;;;;10077396;28;20431;-59
2021/09/12 21:43:30;;;;;;;2.13;1.75;;;22.10;67.50;;;;;;10079601;28;20094;-57
2021/09/12 21:48:20;;;;;;;3.20;1.83;;;22.00;67.80;;;;;;10076994;28;20033;-58
2021/09/12 21:53:11;;;;;;;3.47;1.95;;;22.00;68.00;;;;;;10073277;28;20445;-59
2021/09/12 21:58:02;;;;;;;3.08;1.90;;;21.90;68.40;;;;;;10060488;28;20029;-59
2021/09/12 22:02:53;;;;;;;2.25;1.90;;;21.90;68.70;;;;;;10077139;28;20071;-55
2021/09/12 22:07:44;;;;;;;3.72;2.17;;;21.80;68.80;;;;;;10075506;28;20253;-58
2021/09/12 22:12:35;;;;;;;3.00;2.00;;;21.70;69.30;;;;;;10072285;28;20040;-59
2021/09/12 22:17:26;;;;;;;4.40;2.08;;;21.60;69.70;;;;;;10077037;28;20037;-57
2021/09/12 22:22:16;;;;;;;1.92;1.73;;;21.60;69.80;;;;;;10088622;28;20041;-58
2021/09/12 22:27:07;;;;;;;2.72;1.92;;;21.60;70.20;;;;;;10073102;28;20029;-57
2021/09/12 22:31:58;;;;;;;2.78;1.73;;;21.50;70.40;;;;;;10072947;28;20032;-59
2021/09/12 22:36:49;;;;;;;2.50;1.77;;;21.40;70.70;;;;;;10073886;28;20032;-57
2021/09/12 22:41:39;;;;;;;4.90;2.25;;;21.40;70.60;;;;;;10083245;28;20635;-59
2021/09/12 22:46:31;;;;;;;2.28;1.70;;;21.40;70.60;;;;;;10076759;28;20041;-58
2021/09/12 22:51:21;;;;;;;2.33;2.08;;;21.30;70.70;;;;;;10068670;28;20059;-59
2021/09/12 22:56:12;;;;;;;2.58;1.73;;;21.20;71.30;;;;;;10073413;28;20044;-58
2021/09/12 23:01:03;;;;;;;2.17;1.95;;;21.20;71.30;;;;;;10073938;28;20060;-58
2021/09/12 23:05:54;;;;;;;3.15;2.33;;;21.20;71.30;;;;;;10076793;28;20702;-60
2021/09/12 23:10:45;;;;;;;1.52;1.35;;;21.10;71.50;;;;;;10070780;28;20037;-57
2021/09/12 23:15:35;;;;;;;2.38;1.85;;;21.00;71.90;;;;;;10071020;28;20060;-58
2021/09/12 23:20:26;;;;;;;3.50;2.17;;;20.90;72.20;;;;;;10056755;28;20114;-58
2021/09/12 23:25:17;;;;;;;2.88;2.28;;;20.90;72.60;;;;;;10073956;28;20037;-57
2021/09/12 23:30:08;;;;;;;2.42;1.85;;;20.80;72.60;;;;;;10081873;28;20037;-59
2021/09/12 23:34:59;;;;;;;2.72;1.88;;;20.70;72.90;;;;;;10072051;28;20041;-58
2021/09/12 23:39:49;;;;;;;2.20;1.67;;;20.70;73.20;;;;;;10070114;28;20666;-58
2021/09/12 23:44:40;;;;;;;4.50;3.15;;;20.60;73.20;;;;;;10075107;28;20055;-60
2021/09/12 23:49:31;;;;;;;3.97;2.60;;;20.60;73.30;;;;;;10080630;28;20021;-60
2021/09/12 23:54:22;;;;;;;4.13;2.05;;;20.50;73.50;;;;;;10085643;28;20024;-59
2021/09/12 23:59:13;;;;;;;2.30;2.10;;;20.40;73.90;;;;;;10060636;28;20025;-59
